sensor_id;sensor_type;location;lat;lon;timestamp;P1;durP1;ratioP1;P2;durP2;ratioP2
71104;SDS011;58760;48.716;8.962;2022-12-05T00:03:54;29.02;;;11.23;;
71104;SDS011;58760;48.716;8.962;2022-12-05T00:06:21;24.67;;;11.15;;
71104;SDS011;58760;48.716;8.962;2022-12-05T00:08:48;23.25;;;10.60;;
71104;SDS011;58760;48.716;8.962;2022-12-05T00:11:16;23.98;;;11.02;;
71104;SDS011;58760;48.716;8.962;2022-12-05T00:13:43;26.13;;;11.10;;
71104;SDS011;58760;48.716;8.962;2022-12-05T00:16:10;26.70;;;10.50;;
71104;SDS011;58760;48.716;8.962;2022-12-05T00:18:37;24.75;;;10.10;;
71104;SDS011;58760;48.716;8.962;2022-12-05T00:21:03;24.50;;;10.43;;
71104;SDS011;58760;48.716;8.962;2022-12-05T00:23:29;24.25;;;10.50;;
71104;SDS011;58760;48.716;8.962;2022-12-05T00:25:55;21.13;;;9.60;;
71104;SDS011;58760;48.716;8.962;2022-12-05T00:28:20;24.55;;;11.30;;
71104;SDS011;58760;48.716;8.962;2022-12-05T00:30:46;22.17;;;9.77;;
71104;SDS011;58760;48.716;8.962;2022-12-05T00:33:11;24.25;;;11.18;;
71104;SDS011;58760;48.716;8.962;2022-12-05T00:35:36;24.98;;;10.27;;
71104;SDS011;58760;48.716;8.962;2022-12-05T00:38:02;25.33;;;10.93;;
71104;SDS011;58760;48.716;8.962;2022-12-05T00:40:27;20.27;;;10.45;;
71104;SDS011;58760;48.716;8.962;2022-12-05T00:42:53;20.50;;;9.48;;
71104;SDS011;58760;48.716;8.962;2022-12-05T00:45:18;21.90;;;9.07;;
71104;SDS011;58760;48.716;8.962;2022-12-05T00:47:43;21.92;;;9.40;;
71104;SDS011;58760;48.716;8.962;2022-12-05T00:50:09;20.67;;;8.98;;
71104;SDS011;58760;48.716;8.962;2022-12-05T00:52:34;19.92;;;8.38;;
71104;SDS011;58760;48.716;8.962;2022-12-05T00:55:00;17.67;;;8.07;;
71104;SDS011;58760;48.716;8.962;2022-12-05T00:57:25;20.05;;;9.30;;
71104;SDS011;58760;48.716;8.962;2022-12-05T00:59:50;18.45;;;8.55;;
71104;SDS011;58760;48.716;8.962;2022-12-05T01:02:16;21.17;;;9.30;;
71104;SDS011;58760;48.716;8.962;2022-12-05T01:04:41;19.65;;;8.93;;
71104;SDS011;58760;48.716;8.962;2022-12-05T01:07:07;22.77;;;8.85;;
71104;SDS011;58760;48.716;8.962;2022-12-05T01:09:32;20.38;;;9.13;;
71104;SDS011;58760;48.716;8.962;2022-12-05T01:11:57;21.70;;;9.02;;
71104;SDS011;58760;48.716;8.962;2022-12-05T01:14:23;20.77;;;9.48;;
71104;SDS011;58760;48.716;8.962;2022-12-05T01:16:50;20.60;;;9.35;;
71104;SDS011;58760;48.716;8.962;2022-12-05T01:19:25;22.48;;;10.10;;
71104;SDS011;58760;48.716;8.962;2022-12-05T01:21:52;22.45;;;9.55;;
71104;SDS011;58760;48.716;8.962;2022-12-05T01:24:19;23.52;;;9.55;;
71104;SDS011;58760;48.716;8.962;2022-12-05T01:26:45;20.17;;;9.38;;
71104;SDS011;58760;48.716;8.962;2022-12-05T01:29:12;22.08;;;8.80;;
71104;SDS011;58760;48.716;8.962;2022-12-05T01:31:39;20.92;;;9.13;;
71104;SDS011;58760;48.716;8.962;2022-12-05T01:34:05;20.75;;;8.43;;
71104;SDS011;58760;48.716;8.962;2022-12-05T01:36:32;22.92;;;8.98;;
71104;SDS011;58760;48.716;8.962;2022-12-05T01:38:58;18.67;;;9.07;;
71104;SDS011;58760;48.716;8.962;2022-12-05T01:41:25;21.55;;;9.07;;
71104;SDS011;58760;48.716;8.962;2022-12-05T01:46:24;23.13;;;9.15;;
71104;SDS011;58760;48.716;8.962;2022-12-05T01:48:51;20.20;;;8.60;;
71104;SDS011;58760;48.716;8.962;2022-12-05T01:51:19;21.90;;;8.73;;
71104;SDS011;58760;48.716;8.962;2022-12-05T01:53:46;22.65;;;9.25;;
71104;SDS011;58760;48.716;8.962;2022-12-05T01:56:12;18.90;;;8.57;;
71104;SDS011;58760;48.716;8.962;2022-12-05T01:58:38;21.25;;;9.10;;
71104;SDS011;58760;48.716;8.962;2022-12-05T02:01:04;20.50;;;9.50;;
71104;SDS011;58760;48.716;8.962;2022-12-05T02:03:29;20.70;;;8.48;;
71104;SDS011;58760;48.716;8.962;2022-12-05T02:05:56;23.08;;;9.13;;
71104;SDS011;58760;48.716;8.962;2022-12-05T02:08:22;18.45;;;8.77;;
71104;SDS011;58760;48.716;8.962;2022-12-05T02:10:49;20.40;;;9.05;;
71104;SDS011;58760;48.716;8.962;2022-12-05T02:24:26;25.45;;;10.73;;
71104;SDS011;58760;48.716;8.962;2022-12-05T02:38:03;25.45;;;11.15;;
71104;SDS011;58760;48.716;8.962;2022-12-05T02:46:11;28.08;;;11.63;;
71104;SDS011;58760;48.716;8.962;2022-12-05T02:48:41;31.05;;;12.15;;
71104;SDS011;58760;48.716;8.962;2022-12-05T02:51:10;25.23;;;11.32;;
71104;SDS011;58760;48.716;8.962;2022-12-05T02:53:41;24.27;;;10.35;;
71104;SDS011;58760;48.716;8.962;2022-12-05T02:56:08;29.77;;;10.60;;
71104;SDS011;58760;48.716;8.962;2022-12-05T02:58:39;28.73;;;11.55;;
71104;SDS011;58760;48.716;8.962;2022-12-05T03:01:09;26.55;;;11.65;;
71104;SDS011;58760;48.716;8.962;2022-12-05T03:03:35;24.08;;;10.80;;
71104;SDS011;58760;48.716;8.962;2022-12-05T03:09:02;24.13;;;9.45;;
71104;SDS011;58760;48.716;8.962;2022-12-05T03:11:39;27.42;;;9.68;;
71104;SDS011;58760;48.716;8.962;2022-12-05T03:14:22;26.95;;;11.02;;
71104;SDS011;58760;48.716;8.962;2022-12-05T03:16:51;27.20;;;11.32;;
71104;SDS011;58760;48.716;8.962;2022-12-05T03:22:07;26.42;;;10.98;;
71104;SDS011;58760;48.716;8.962;2022-12-05T03:24:39;26.52;;;11.13;;
71104;SDS011;58760;48.716;8.962;2022-12-05T03:29:50;29.63;;;10.75;;
71104;SDS011;58760;48.716;8.962;2022-12-05T03:32:22;24.60;;;10.57;;
71104;SDS011;58760;48.716;8.962;2022-12-05T03:40:50;26.77;;;10.18;;
71104;SDS011;58760;48.716;8.962;2022-12-05T03:51:38;24.23;;;10.73;;
71104;SDS011;58760;48.716;8.962;2022-12-05T03:56:44;20.35;;;9.63;;
71104;SDS011;58760;48.716;8.962;2022-12-05T03:59:36;21.90;;;9.68;;
71104;SDS011;58760;48.716;8.962;2022-12-05T04:02:07;21.08;;;10.00;;
71104;SDS011;58760;48.716;8.962;2022-12-05T04:04:38;21.33;;;9.43;;
71104;SDS011;58760;48.716;8.962;2022-12-05T04:07:13;21.20;;;9.50;;
71104;SDS011;58760;48.716;8.962;2022-12-05T04:09:44;21.52;;;9.45;;
71104;SDS011;58760;48.716;8.962;2022-12-05T04:12:22;25.58;;;9.88;;
71104;SDS011;58760;48.716;8.962;2022-12-05T04:14:58;24.80;;;9.70;;
71104;SDS011;58760;48.716;8.962;2022-12-05T04:17:39;23.73;;;10.30;;
71104;SDS011;58760;48.716;8.962;2022-12-05T04:20:37;21.20;;;9.50;;
71104;SDS011;58760;48.716;8.962;2022-12-05T04:23:34;23.30;;;9.95;;
71104;SDS011;58760;48.716;8.962;2022-12-05T04:31:10;22.77;;;10.07;;
71104;SDS011;58760;48.716;8.962;2022-12-05T04:39:12;19.95;;;8.43;;
71104;SDS011;58760;48.716;8.962;2022-12-05T04:42:04;26.10;;;9.48;;
71104;SDS011;58760;48.716;8.962;2022-12-05T04:44:35;19.63;;;8.25;;
71104;SDS011;58760;48.716;8.962;2022-12-05T04:47:15;17.75;;;8.23;;
71104;SDS011;58760;48.716;8.962;2022-12-05T04:49:43;18.95;;;8.25;;
71104;SDS011;58760;48.716;8.962;2022-12-05T04:52:10;18.40;;;8.80;;
71104;SDS011;58760;48.716;8.962;2022-12-05T04:54:41;20.80;;;9.43;;
71104;SDS011;58760;48.716;8.962;2022-12-05T04:57:17;19.38;;;8.13;;
71104;SDS011;58760;48.716;8.962;2022-12-05T04:59:46;18.15;;;8.60;;
71104;SDS011;58760;48.716;8.962;2022-12-05T05:02:12;20.10;;;8.25;;
71104;SDS011;58760;48.716;8.962;2022-12-05T05:04:42;16.60;;;7.93;;
71104;SDS011;58760;48.716;8.962;2022-12-05T05:07:15;17.33;;;8.18;;
71104;SDS011;58760;48.716;8.962;2022-12-05T05:09:41;19.20;;;8.85;;
71104;SDS011;58760;48.716;8.962;2022-12-05T05:12:07;20.35;;;9.00;;
71104;SDS011;58760;48.716;8.962;2022-12-05T05:14:32;15.23;;;7.30;;
71104;SDS011;58760;48.716;8.962;2022-12-05T05:16:58;18.45;;;8.05;;
71104;SDS011;58760;48.716;8.962;2022-12-05T05:19:23;16.58;;;8.27;;
71104;SDS011;58760;48.716;8.962;2022-12-05T05:21:49;19.25;;;8.45;;
71104;SDS011;58760;48.716;8.962;2022-12-05T05:24:15;16.10;;;7.43;;
71104;SDS011;58760;48.716;8.962;2022-12-05T05:26:42;18.02;;;8.02;;
71104;SDS011;58760;48.716;8.962;2022-12-05T05:29:09;16.15;;;7.47;;
71104;SDS011;58760;48.716;8.962;2022-12-05T05:31:36;17.17;;;7.22;;
71104;SDS011;58760;48.716;8.962;2022-12-05T05:34:02;16.35;;;7.40;;
71104;SDS011;58760;48.716;8.962;2022-12-05T05:36:27;18.25;;;7.57;;
71104;SDS011;58760;48.716;8.962;2022-12-05T05:38:53;15.25;;;7.35;;
71104;SDS011;58760;48.716;8.962;2022-12-05T05:41:22;15.43;;;7.40;;
71104;SDS011;58760;48.716;8.962;2022-12-05T05:43:49;16.30;;;7.57;;
71104;SDS011;58760;48.716;8.962;2022-12-05T05:46:18;14.32;;;6.50;;
71104;SDS011;58760;48.716;8.962;2022-12-05T05:48:46;13.18;;;6.22;;
71104;SDS011;58760;48.716;8.962;2022-12-05T05:51:12;15.73;;;7.55;;
71104;SDS011;58760;48.716;8.962;2022-12-05T05:56:06;13.82;;;6.70;;
71104;SDS011;58760;48.716;8.962;2022-12-05T05:58:33;14.40;;;6.72;;
71104;SDS011;58760;48.716;8.962;2022-12-05T06:01:05;15.90;;;7.13;;
71104;SDS011;58760;48.716;8.962;2022-12-05T06:03:32;15.48;;;7.32;;
71104;SDS011;58760;48.716;8.962;2022-12-05T06:05:58;14.60;;;7.10;;
71104;SDS011;58760;48.716;8.962;2022-12-05T06:08:28;15.68;;;7.43;;
71104;SDS011;58760;48.716;8.962;2022-12-05T06:10:54;15.50;;;7.70;;
71104;SDS011;58760;48.716;8.962;2022-12-05T06:13:19;17.25;;;8.10;;
71104;SDS011;58760;48.716;8.962;2022-12-05T06:15:45;16.30;;;7.90;;
71104;SDS011;58760;48.716;8.962;2022-12-05T06:18:10;14.15;;;7.07;;
71104;SDS011;58760;48.716;8.962;2022-12-05T06:20:35;17.60;;;6.95;;
71104;SDS011;58760;48.716;8.962;2022-12-05T06:23:01;17.27;;;7.93;;
71104;SDS011;58760;48.716;8.962;2022-12-05T06:25:26;15.45;;;7.47;;
71104;SDS011;58760;48.716;8.962;2022-12-05T06:27:52;15.68;;;7.28;;
71104;SDS011;58760;48.716;8.962;2022-12-05T06:30:17;17.88;;;7.88;;
71104;SDS011;58760;48.716;8.962;2022-12-05T06:32:42;15.90;;;7.45;;
71104;SDS011;58760;48.716;8.962;2022-12-05T06:35:08;13.02;;;6.65;;
71104;SDS011;58760;48.716;8.962;2022-12-05T06:37:40;14.52;;;7.38;;
71104;SDS011;58760;48.716;8.962;2022-12-05T06:40:12;15.00;;;7.25;;
71104;SDS011;58760;48.716;8.962;2022-12-05T06:42:37;16.20;;;7.47;;
71104;SDS011;58760;48.716;8.962;2022-12-05T06:45:03;12.77;;;6.43;;
71104;SDS011;58760;48.716;8.962;2022-12-05T06:47:29;14.60;;;6.93;;
71104;SDS011;58760;48.716;8.962;2022-12-05T06:49:55;12.13;;;6.68;;
71104;SDS011;58760;48.716;8.962;2022-12-05T06:52:20;13.63;;;7.18;;
71104;SDS011;58760;48.716;8.962;2022-12-05T06:54:45;14.55;;;6.70;;
71104;SDS011;58760;48.716;8.962;2022-12-05T06:57:11;14.50;;;6.68;;
71104;SDS011;58760;48.716;8.962;2022-12-05T06:59:37;13.20;;;6.43;;
71104;SDS011;58760;48.716;8.962;2022-12-05T07:02:02;14.98;;;6.72;;
71104;SDS011;58760;48.716;8.962;2022-12-05T07:04:31;13.63;;;6.60;;
71104;SDS011;58760;48.716;8.962;2022-12-05T07:06:56;15.73;;;6.60;;
71104;SDS011;58760;48.716;8.962;2022-12-05T07:09:23;13.40;;;6.47;;
71104;SDS011;58760;48.716;8.962;2022-12-05T07:12:10;13.68;;;6.47;;
71104;SDS011;58760;48.716;8.962;2022-12-05T07:14:36;14.50;;;6.65;;
71104;SDS011;58760;48.716;8.962;2022-12-05T07:17:01;13.50;;;6.93;;
71104;SDS011;58760;48.716;8.962;2022-12-05T07:19:27;12.45;;;6.45;;
71104;SDS011;58760;48.716;8.962;2022-12-05T07:21:53;13.90;;;7.18;;
71104;SDS011;58760;48.716;8.962;2022-12-05T07:24:18;12.98;;;6.78;;
71104;SDS011;58760;48.716;8.962;2022-12-05T07:26:43;13.40;;;6.60;;
71104;SDS011;58760;48.716;8.962;2022-12-05T07:29:09;13.77;;;6.40;;
71104;SDS011;58760;48.716;8.962;2022-12-05T07:31:34;14.98;;;6.93;;
71104;SDS011;58760;48.716;8.962;2022-12-05T07:34:01;12.57;;;6.78;;
71104;SDS011;58760;48.716;8.962;2022-12-05T07:36:26;16.25;;;6.78;;
71104;SDS011;58760;48.716;8.962;2022-12-05T07:38:55;12.98;;;6.93;;
71104;SDS011;58760;48.716;8.962;2022-12-05T07:41:22;13.43;;;6.97;;
71104;SDS011;58760;48.716;8.962;2022-12-05T07:43:55;15.13;;;7.10;;
71104;SDS011;58760;48.716;8.962;2022-12-05T07:46:22;11.20;;;5.90;;
71104;SDS011;58760;48.716;8.962;2022-12-05T07:48:49;9.52;;;5.40;;
71104;SDS011;58760;48.716;8.962;2022-12-05T07:51:15;10.98;;;5.50;;
71104;SDS011;58760;48.716;8.962;2022-12-05T07:53:42;10.82;;;5.90;;
71104;SDS011;58760;48.716;8.962;2022-12-05T07:56:08;13.13;;;5.50;;
71104;SDS011;58760;48.716;8.962;2022-12-05T07:58:36;12.05;;;6.47;;
71104;SDS011;58760;48.716;8.962;2022-12-05T08:01:06;14.57;;;5.93;;
71104;SDS011;58760;48.716;8.962;2022-12-05T08:03:32;13.45;;;6.20;;
71104;SDS011;58760;48.716;8.962;2022-12-05T08:06:02;12.68;;;6.80;;
71104;SDS011;58760;48.716;8.962;2022-12-05T08:08:38;17.88;;;7.20;;
71104;SDS011;58760;48.716;8.962;2022-12-05T08:11:14;12.63;;;6.25;;
71104;SDS011;58760;48.716;8.962;2022-12-05T08:13:41;15.48;;;7.25;;
71104;SDS011;58760;48.716;8.962;2022-12-05T08:16:08;14.40;;;6.78;;
71104;SDS011;58760;48.716;8.962;2022-12-05T08:18:35;18.48;;;7.22;;
71104;SDS011;58760;48.716;8.962;2022-12-05T08:21:14;13.35;;;6.25;;
71104;SDS011;58760;48.716;8.962;2022-12-05T08:23:42;13.20;;;6.22;;
71104;SDS011;58760;48.716;8.962;2022-12-05T08:26:12;13.77;;;6.53;;
71104;SDS011;58760;48.716;8.962;2022-12-05T08:28:39;13.60;;;6.50;;
71104;SDS011;58760;48.716;8.962;2022-12-05T08:31:07;13.93;;;6.63;;
71104;SDS011;58760;48.716;8.962;2022-12-05T08:33:43;15.45;;;7.00;;
71104;SDS011;58760;48.716;8.962;2022-12-05T08:36:12;11.93;;;6.70;;
71104;SDS011;58760;48.716;8.962;2022-12-05T08:38:39;11.77;;;6.30;;
71104;SDS011;58760;48.716;8.962;2022-12-05T08:41:06;14.68;;;7.15;;
71104;SDS011;58760;48.716;8.962;2022-12-05T08:43:35;12.85;;;7.22;;
71104;SDS011;58760;48.716;8.962;2022-12-05T08:46:00;12.45;;;6.13;;
71104;SDS011;58760;48.716;8.962;2022-12-05T08:48:27;12.52;;;6.55;;
71104;SDS011;58760;48.716;8.962;2022-12-05T08:50:53;12.80;;;6.75;;
71104;SDS011;58760;48.716;8.962;2022-12-05T08:53:19;11.85;;;6.47;;
71104;SDS011;58760;48.716;8.962;2022-12-05T08:55:45;12.85;;;6.95;;
71104;SDS011;58760;48.716;8.962;2022-12-05T08:58:10;12.80;;;6.53;;
71104;SDS011;58760;48.716;8.962;2022-12-05T09:00:36;12.45;;;6.55;;
71104;SDS011;58760;48.716;8.962;2022-12-05T09:03:02;14.73;;;6.80;;
71104;SDS011;58760;48.716;8.962;2022-12-05T09:05:28;15.88;;;7.05;;
71104;SDS011;58760;48.716;8.962;2022-12-05T09:07:53;14.30;;;7.65;;
71104;SDS011;58760;48.716;8.962;2022-12-05T09:10:19;13.40;;;7.13;;
71104;SDS011;58760;48.716;8.962;2022-12-05T09:12:44;12.15;;;6.70;;
71104;SDS011;58760;48.716;8.962;2022-12-05T09:15:10;13.98;;;6.72;;
71104;SDS011;58760;48.716;8.962;2022-12-05T09:17:36;12.55;;;6.53;;
71104;SDS011;58760;48.716;8.962;2022-12-05T09:20:03;11.68;;;6.78;;
71104;SDS011;58760;48.716;8.962;2022-12-05T09:22:32;12.82;;;6.57;;
71104;SDS011;58760;48.716;8.962;2022-12-05T09:24:58;11.55;;;6.53;;
71104;SDS011;58760;48.716;8.962;2022-12-05T09:27:26;14.75;;;6.80;;
71104;SDS011;58760;48.716;8.962;2022-12-05T09:29:52;12.35;;;6.05;;
71104;SDS011;58760;48.716;8.962;2022-12-05T09:32:17;12.57;;;6.57;;
71104;SDS011;58760;48.716;8.962;2022-12-05T09:34:43;13.05;;;7.25;;
71104;SDS011;58760;48.716;8.962;2022-12-05T09:37:08;12.15;;;6.97;;
71104;SDS011;58760;48.716;8.962;2022-12-05T09:39:34;12.60;;;5.93;;
71104;SDS011;58760;48.716;8.962;2022-12-05T09:42:04;12.68;;;6.30;;
71104;SDS011;58760;48.716;8.962;2022-12-05T09:45:36;11.80;;;5.70;;
71104;SDS011;58760;48.716;8.962;2022-12-05T09:47:59;13.80;;;5.78;;
71104;SDS011;58760;48.716;8.962;2022-12-05T09:50:32;10.95;;;6.32;;
71104;SDS011;58760;48.716;8.962;2022-12-05T10:07:26;12.45;;;6.50;;
71104;SDS011;58760;48.716;8.962;2022-12-05T10:15:53;11.48;;;6.40;;
71104;SDS011;58760;48.716;8.962;2022-12-05T10:18:31;12.05;;;6.00;;
71104;SDS011;58760;48.716;8.962;2022-12-05T10:21:20;12.05;;;5.57;;
71104;SDS011;58760;48.716;8.962;2022-12-05T10:23:57;11.88;;;5.90;;
71104;SDS011;58760;48.716;8.962;2022-12-05T10:26:28;11.88;;;6.13;;
71104;SDS011;58760;48.716;8.962;2022-12-05T10:31:47;11.50;;;6.35;;
71104;SDS011;58760;48.716;8.962;2022-12-05T10:34:15;10.88;;;6.18;;
71104;SDS011;58760;48.716;8.962;2022-12-05T10:36:56;12.45;;;5.47;;
71104;SDS011;58760;48.716;8.962;2022-12-05T10:39:26;8.75;;;4.80;;
71104;SDS011;58760;48.716;8.962;2022-12-05T10:41:52;9.25;;;4.75;;
71104;SDS011;58760;48.716;8.962;2022-12-05T10:44:18;9.35;;;4.05;;
71104;SDS011;58760;48.716;8.962;2022-12-05T10:46:43;9.25;;;3.88;;
71104;SDS011;58760;48.716;8.962;2022-12-05T10:49:09;7.75;;;3.85;;
71104;SDS011;58760;48.716;8.962;2022-12-05T10:51:36;8.15;;;3.83;;
71104;SDS011;58760;48.716;8.962;2022-12-05T10:54:04;7.45;;;3.40;;
71104;SDS011;58760;48.716;8.962;2022-12-05T10:56:42;7.38;;;3.17;;
71104;SDS011;58760;48.716;8.962;2022-12-05T10:59:11;7.60;;;3.28;;
71104;SDS011;58760;48.716;8.962;2022-12-05T11:01:48;6.70;;;3.03;;
71104;SDS011;58760;48.716;8.962;2022-12-05T11:04:19;6.00;;;2.92;;
71104;SDS011;58760;48.716;8.962;2022-12-05T11:06:51;4.93;;;2.28;;
71104;SDS011;58760;48.716;8.962;2022-12-05T11:09:20;5.68;;;2.50;;
71104;SDS011;58760;48.716;8.962;2022-12-05T11:12:24;5.85;;;2.47;;
71104;SDS011;58760;48.716;8.962;2022-12-05T11:17:43;4.95;;;2.28;;
71104;SDS011;58760;48.716;8.962;2022-12-05T11:22:41;7.90;;;2.33;;
71104;SDS011;58760;48.716;8.962;2022-12-05T11:25:24;5.28;;;2.10;;
71104;SDS011;58760;48.716;8.962;2022-12-05T11:27:49;5.55;;;2.50;;
71104;SDS011;58760;48.716;8.962;2022-12-05T11:30:18;5.97;;;2.60;;
71104;SDS011;58760;48.716;8.962;2022-12-05T11:32:47;5.07;;;2.45;;
71104;SDS011;58760;48.716;8.962;2022-12-05T11:35:20;5.35;;;2.22;;
71104;SDS011;58760;48.716;8.962;2022-12-05T11:37:57;5.90;;;2.13;;
71104;SDS011;58760;48.716;8.962;2022-12-05T11:51:30;5.18;;;2.33;;
71104;SDS011;58760;48.716;8.962;2022-12-05T11:57:06;5.15;;;1.95;;
71104;SDS011;58760;48.716;8.962;2022-12-05T12:10:50;5.13;;;1.83;;
71104;SDS011;58760;48.716;8.962;2022-12-05T12:19:52;6.05;;;2.28;;
71104;SDS011;58760;48.716;8.962;2022-12-05T12:35:49;3.75;;;1.67;;
71104;SDS011;58760;48.716;8.962;2022-12-05T12:40:54;5.28;;;1.92;;
71104;SDS011;58760;48.716;8.962;2022-12-05T12:51:52;4.45;;;1.90;;
71104;SDS011;58760;48.716;8.962;2022-12-05T12:54:29;4.88;;;1.80;;
71104;SDS011;58760;48.716;8.962;2022-12-05T13:02:08;4.30;;;1.83;;
71104;SDS011;58760;48.716;8.962;2022-12-05T13:04:49;3.28;;;1.45;;
71104;SDS011;58760;48.716;8.962;2022-12-05T13:07:23;3.80;;;1.70;;
71104;SDS011;58760;48.716;8.962;2022-12-05T13:09:59;4.80;;;1.67;;
71104;SDS011;58760;48.716;8.962;2022-12-05T13:12:31;4.35;;;1.73;;
71104;SDS011;58760;48.716;8.962;2022-12-05T13:15:03;4.82;;;1.52;;
71104;SDS011;58760;48.716;8.962;2022-12-05T13:17:34;3.63;;;1.40;;
71104;SDS011;58760;48.716;8.962;2022-12-05T13:20:05;4.25;;;1.63;;
71104;SDS011;58760;48.716;8.962;2022-12-05T13:22:41;4.22;;;1.60;;
71104;SDS011;58760;48.716;8.962;2022-12-05T13:25:12;2.97;;;1.40;;
71104;SDS011;58760;48.716;8.962;2022-12-05T13:27:53;4.63;;;1.60;;
71104;SDS011;58760;48.716;8.962;2022-12-05T13:30:22;4.47;;;1.98;;
71104;SDS011;58760;48.716;8.962;2022-12-05T13:32:56;4.28;;;1.83;;
71104;SDS011;58760;48.716;8.962;2022-12-05T13:35:33;3.45;;;1.63;;
71104;SDS011;58760;48.716;8.962;2022-12-05T13:38:22;3.72;;;1.80;;
71104;SDS011;58760;48.716;8.962;2022-12-05T13:43:59;3.53;;;1.65;;
71104;SDS011;58760;48.716;8.962;2022-12-05T13:46:27;4.78;;;1.75;;
71104;SDS011;58760;48.716;8.962;2022-12-05T13:49:18;4.50;;;1.45;;
71104;SDS011;58760;48.716;8.962;2022-12-05T13:51:47;5.15;;;2.00;;
71104;SDS011;58760;48.716;8.962;2022-12-05T14:10:13;5.32;;;1.58;;
71104;SDS011;58760;48.716;8.962;2022-12-05T14:15:29;4.55;;;1.70;;
71104;SDS011;58760;48.716;8.962;2022-12-05T14:18:02;3.60;;;1.65;;
71104;SDS011;58760;48.716;8.962;2022-12-05T14:26:19;3.28;;;1.40;;
71104;SDS011;58760;48.716;8.962;2022-12-05T14:32:11;2.42;;;1.20;;
71104;SDS011;58760;48.716;8.962;2022-12-05T14:37:27;3.10;;;1.30;;
71104;SDS011;58760;48.716;8.962;2022-12-05T14:39:59;2.85;;;1.25;;
71104;SDS011;58760;48.716;8.962;2022-12-05T14:42:36;3.75;;;1.40;;
71104;SDS011;58760;48.716;8.962;2022-12-05T14:48:04;2.67;;;1.10;;
71104;SDS011;58760;48.716;8.962;2022-12-05T14:50:47;4.63;;;1.17;;
71104;SDS011;58760;48.716;8.962;2022-12-05T14:55:46;3.13;;;1.50;;
71104;SDS011;58760;48.716;8.962;2022-12-05T14:58:16;3.38;;;1.40;;
71104;SDS011;58760;48.716;8.962;2022-12-05T15:00:45;3.28;;;1.48;;
71104;SDS011;58760;48.716;8.962;2022-12-05T15:03:21;3.33;;;1.38;;
71104;SDS011;58760;48.716;8.962;2022-12-05T15:05:49;3.08;;;1.25;;
71104;SDS011;58760;48.716;8.962;2022-12-05T15:08:15;4.93;;;1.90;;
71104;SDS011;58760;48.716;8.962;2022-12-05T15:10:41;3.83;;;1.80;;
71104;SDS011;58760;48.716;8.962;2022-12-05T15:13:18;3.42;;;1.30;;
71104;SDS011;58760;48.716;8.962;2022-12-05T15:15:54;4.03;;;1.50;;
71104;SDS011;58760;48.716;8.962;2022-12-05T15:18:33;5.15;;;1.50;;
71104;SDS011;58760;48.716;8.962;2022-12-05T15:23:46;4.50;;;1.38;;
71104;SDS011;58760;48.716;8.962;2022-12-05T15:29:03;4.90;;;1.60;;
71104;SDS011;58760;48.716;8.962;2022-12-05T15:37:27;3.95;;;1.73;;
71104;SDS011;58760;48.716;8.962;2022-12-05T15:40:07;6.18;;;1.90;;
71104;SDS011;58760;48.716;8.962;2022-12-05T15:47:46;3.35;;;1.40;;
71104;SDS011;58760;48.716;8.962;2022-12-05T15:50:13;5.20;;;1.85;;
71104;SDS011;58760;48.716;8.962;2022-12-05T15:53:02;4.50;;;1.90;;
71104;SDS011;58760;48.716;8.962;2022-12-05T15:55:32;4.85;;;1.60;;
71104;SDS011;58760;48.716;8.962;2022-12-05T15:58:07;4.82;;;2.10;;
71104;SDS011;58760;48.716;8.962;2022-12-05T16:03:17;3.60;;;1.88;;
71104;SDS011;58760;48.716;8.962;2022-12-05T16:05:53;4.72;;;2.00;;
71104;SDS011;58760;48.716;8.962;2022-12-05T16:08:22;5.38;;;1.95;;
71104;SDS011;58760;48.716;8.962;2022-12-05T16:10:48;4.50;;;1.85;;
71104;SDS011;58760;48.716;8.962;2022-12-05T16:13:15;8.00;;;3.55;;
71104;SDS011;58760;48.716;8.962;2022-12-05T16:15:47;6.18;;;2.95;;
71104;SDS011;58760;48.716;8.962;2022-12-05T16:18:48;5.63;;;2.80;;
71104;SDS011;58760;48.716;8.962;2022-12-05T16:21:31;9.05;;;3.28;;
71104;SDS011;58760;48.716;8.962;2022-12-05T16:24:07;6.95;;;3.13;;
71104;SDS011;58760;48.716;8.962;2022-12-05T16:26:38;10.20;;;3.13;;
71104;SDS011;58760;48.716;8.962;2022-12-05T16:29:05;6.15;;;2.53;;
71104;SDS011;58760;48.716;8.962;2022-12-05T16:31:32;11.32;;;3.40;;
71104;SDS011;58760;48.716;8.962;2022-12-05T16:33:59;6.38;;;2.72;;
71104;SDS011;58760;48.716;8.962;2022-12-05T16:39:02;6.43;;;2.80;;
71104;SDS011;58760;48.716;8.962;2022-12-05T16:41:37;9.15;;;3.00;;
71104;SDS011;58760;48.716;8.962;2022-12-05T16:44:04;7.65;;;3.42;;
71104;SDS011;58760;48.716;8.962;2022-12-05T16:46:49;6.78;;;2.88;;
71104;SDS011;58760;48.716;8.962;2022-12-05T16:56:51;9.97;;;4.17;;
71104;SDS011;58760;48.716;8.962;2022-12-05T16:59:19;9.13;;;4.15;;
71104;SDS011;58760;48.716;8.962;2022-12-05T17:01:48;13.00;;;5.22;;
71104;SDS011;58760;48.716;8.962;2022-12-05T17:04:13;9.90;;;5.35;;
71104;SDS011;58760;48.716;8.962;2022-12-05T17:06:39;11.80;;;5.78;;
71104;SDS011;58760;48.716;8.962;2022-12-05T17:09:04;13.70;;;6.55;;
71104;SDS011;58760;48.716;8.962;2022-12-05T17:11:30;12.23;;;6.50;;
71104;SDS011;58760;48.716;8.962;2022-12-05T17:13:58;11.73;;;6.50;;
71104;SDS011;58760;48.716;8.962;2022-12-05T17:16:24;11.98;;;6.38;;
71104;SDS011;58760;48.716;8.962;2022-12-05T17:18:50;13.00;;;6.88;;
71104;SDS011;58760;48.716;8.962;2022-12-05T17:21:18;13.52;;;7.18;;
71104;SDS011;58760;48.716;8.962;2022-12-05T17:23:46;12.02;;;6.03;;
71104;SDS011;58760;48.716;8.962;2022-12-05T17:26:12;10.85;;;5.85;;
71104;SDS011;58760;48.716;8.962;2022-12-05T17:28:39;13.52;;;5.88;;
71104;SDS011;58760;48.716;8.962;2022-12-05T17:31:05;14.27;;;6.90;;
71104;SDS011;58760;48.716;8.962;2022-12-05T17:33:31;11.35;;;5.88;;
71104;SDS011;58760;48.716;8.962;2022-12-05T17:35:58;10.27;;;5.30;;
71104;SDS011;58760;48.716;8.962;2022-12-05T17:38:24;13.65;;;6.43;;
71104;SDS011;58760;48.716;8.962;2022-12-05T17:40:49;12.95;;;7.28;;
71104;SDS011;58760;48.716;8.962;2022-12-05T17:43:14;16.77;;;9.35;;
71104;SDS011;58760;48.716;8.962;2022-12-05T17:45:40;13.30;;;8.40;;
71104;SDS011;58760;48.716;8.962;2022-12-05T17:48:13;16.00;;;7.80;;
71104;SDS011;58760;48.716;8.962;2022-12-05T17:50:40;12.82;;;7.05;;
71104;SDS011;58760;48.716;8.962;2022-12-05T17:53:13;10.82;;;6.05;;
71104;SDS011;58760;48.716;8.962;2022-12-05T17:55:40;12.30;;;5.90;;
71104;SDS011;58760;48.716;8.962;2022-12-05T17:58:06;11.13;;;5.82;;
71104;SDS011;58760;48.716;8.962;2022-12-05T18:00:32;11.48;;;4.35;;
71104;SDS011;58760;48.716;8.962;2022-12-05T18:02:57;10.85;;;4.20;;
71104;SDS011;58760;48.716;8.962;2022-12-05T18:05:23;10.18;;;4.97;;
71104;SDS011;58760;48.716;8.962;2022-12-05T18:07:49;11.23;;;4.82;;
71104;SDS011;58760;48.716;8.962;2022-12-05T18:10:15;8.32;;;3.67;;
71104;SDS011;58760;48.716;8.962;2022-12-05T18:12:43;7.60;;;3.88;;
71104;SDS011;58760;48.716;8.962;2022-12-05T18:15:09;6.63;;;3.20;;
71104;SDS011;58760;48.716;8.962;2022-12-05T18:17:35;9.43;;;3.30;;
71104;SDS011;58760;48.716;8.962;2022-12-05T18:20:00;8.30;;;3.40;;
71104;SDS011;58760;48.716;8.962;2022-12-05T18:22:26;8.52;;;3.70;;
71104;SDS011;58760;48.716;8.962;2022-12-05T18:24:52;8.13;;;3.85;;
71104;SDS011;58760;48.716;8.962;2022-12-05T18:27:19;8.98;;;3.88;;
71104;SDS011;58760;48.716;8.962;2022-12-05T18:29:49;8.90;;;3.60;;
71104;SDS011;58760;48.716;8.962;2022-12-05T18:32:15;12.02;;;3.72;;
71104;SDS011;58760;48.716;8.962;2022-12-05T18:34:41;8.18;;;3.63;;
71104;SDS011;58760;48.716;8.962;2022-12-05T18:37:06;7.75;;;3.55;;
71104;SDS011;58760;48.716;8.962;2022-12-05T18:39:32;6.40;;;3.38;;
71104;SDS011;58760;48.716;8.962;2022-12-05T18:41:57;10.80;;;3.50;;